Annette, Alaska
Current Conditions -  °F | °C
As of 3:38 AM on Friday 31 Oct 2014 (Local Time) from PANT Reporting Station
Clear Clear  
Wind Chill: 34°   Ceiling: Unl
Heat Index: 34°   Visibility: 8mi
Dew Point: 33°   Wind: 0mph
Humidity: 96%   Direction: NA
Pressure: 29.65"   Gusts: NA
Location:  55.05°N, 131.6°W
Report Text: PANT 311238Z 00000KT 8SM CLR 01/01 A2965 RMK AO2 I1000 T00110006
Loading
Personal Weather Stations






























Interactive Weather Map
Tropical Storm Tracking
New forecast layout! Learn more

10-Day Weather Forecast

Advertisements
Track Severe Weather on mobile